sensor_id;sensor_type;location;lat;lon;timestamp;temperature;humidity
44747;DHT22;30472;49.490;10.972;2023-06-19T00:00:10;20.00;99.90
44747;DHT22;30472;49.490;10.972;2023-06-19T00:02:42;20.00;99.90
44747;DHT22;30472;49.490;10.972;2023-06-19T00:05:09;20.00;99.90
44747;DHT22;30472;49.490;10.972;2023-06-19T00:07:36;20.00;99.90
44747;DHT22;30472;49.490;10.972;2023-06-19T00:10:02;20.00;99.90
44747;DHT22;30472;49.490;10.972;2023-06-19T00:12:28;19.90;99.90
44747;DHT22;30472;49.490;10.972;2023-06-19T00:14:53;19.90;99.90
44747;DHT22;30472;49.490;10.972;2023-06-19T00:17:19;20.00;99.90
44747;DHT22;30472;49.490;10.972;2023-06-19T00:19:44;20.00;99.90
44747;DHT22;30472;49.490;10.972;2023-06-19T00:22:10;20.10;99.90
44747;DHT22;30472;49.490;10.972;2023-06-19T00:24:35;20.00;99.90
44747;DHT22;30472;49.490;10.972;2023-06-19T00:27:01;20.00;99.90
44747;DHT22;30472;49.490;10.972;2023-06-19T00:29:28;20.00;99.90
44747;DHT22;30472;49.490;10.972;2023-06-19T00:31:54;20.00;99.90
44747;DHT22;30472;49.490;10.972;2023-06-19T00:34:19;20.00;99.90
44747;DHT22;30472;49.490;10.972;2023-06-19T00:36:45;20.00;99.90
44747;DHT22;30472;49.490;10.972;2023-06-19T00:39:12;20.00;99.90
44747;DHT22;30472;49.490;10.972;2023-06-19T00:41:37;20.00;99.90
44747;DHT22;30472;49.490;10.972;2023-06-19T00:44:03;19.90;99.90
44747;DHT22;30472;49.490;10.972;2023-06-19T00:46:29;19.90;99.90
44747;DHT22;30472;49.490;10.972;2023-06-19T00:48:55;19.90;99.90
44747;DHT22;30472;49.490;10.972;2023-06-19T00:51:21;19.90;99.90
44747;DHT22;30472;49.490;10.972;2023-06-19T00:53:47;19.80;99.90
44747;DHT22;30472;49.490;10.972;2023-06-19T00:56:12;19.80;99.90
44747;DHT22;30472;49.490;10.972;2023-06-19T00:58:38;19.70;99.90
44747;DHT22;30472;49.490;10.972;2023-06-19T01:01:04;19.70;99.90
44747;DHT22;30472;49.490;10.972;2023-06-19T01:03:30;19.70;99.90
44747;DHT22;30472;49.490;10.972;2023-06-19T01:05:56;19.60;99.90
44747;DHT22;30472;49.490;10.972;2023-06-19T01:10:58;19.60;99.90
44747;DHT22;30472;49.490;10.972;2023-06-19T01:13:34;19.60;99.90
44747;DHT22;30472;49.490;10.972;2023-06-19T01:16:03;19.60;99.90
44747;DHT22;30472;49.490;10.972;2023-06-19T01:18:30;19.50;99.90
44747;DHT22;30472;49.490;10.972;2023-06-19T01:20:56;19.40;99.90
44747;DHT22;30472;49.490;10.972;2023-06-19T01:23:21;19.30;99.90
44747;DHT22;30472;49.490;10.972;2023-06-19T01:25:47;19.20;99.90
44747;DHT22;30472;49.490;10.972;2023-06-19T01:28:13;19.20;99.90
44747;DHT22;30472;49.490;10.972;2023-06-19T01:30:40;19.10;99.90
44747;DHT22;30472;49.490;10.972;2023-06-19T01:33:14;19.00;99.90
44747;DHT22;30472;49.490;10.972;2023-06-19T01:35:42;18.90;99.90
44747;DHT22;30472;49.490;10.972;2023-06-19T01:38:08;18.90;99.90
44747;DHT22;30472;49.490;10.972;2023-06-19T01:40:35;18.80;99.90
44747;DHT22;30472;49.490;10.972;2023-06-19T01:43:02;18.70;99.90
44747;DHT22;30472;49.490;10.972;2023-06-19T01:45:30;18.60;99.90
44747;DHT22;30472;49.490;10.972;2023-06-19T01:47:56;18.50;99.90
44747;DHT22;30472;49.490;10.972;2023-06-19T01:50:22;18.40;99.90
44747;DHT22;30472;49.490;10.972;2023-06-19T01:52:48;18.30;99.90
44747;DHT22;30472;49.490;10.972;2023-06-19T01:55:14;18.30;99.90
44747;DHT22;30472;49.490;10.972;2023-06-19T01:57:39;18.20;99.90
44747;DHT22;30472;49.490;10.972;2023-06-19T02:00:05;18.10;99.90
44747;DHT22;30472;49.490;10.972;2023-06-19T02:02:38;18.00;99.90
44747;DHT22;30472;49.490;10.972;2023-06-19T02:05:04;18.00;99.90
44747;DHT22;30472;49.490;10.972;2023-06-19T02:07:30;17.90;99.90
44747;DHT22;30472;49.490;10.972;2023-06-19T02:09:57;17.90;99.90
44747;DHT22;30472;49.490;10.972;2023-06-19T02:12:22;17.80;99.90
44747;DHT22;30472;49.490;10.972;2023-06-19T02:14:48;17.70;99.90
44747;DHT22;30472;49.490;10.972;2023-06-19T02:17:13;17.70;99.90
44747;DHT22;30472;49.490;10.972;2023-06-19T02:19:39;17.70;99.90
44747;DHT22;30472;49.490;10.972;2023-06-19T02:22:05;17.90;99.90
44747;DHT22;30472;49.490;10.972;2023-06-19T02:24:32;18.00;99.90
44747;DHT22;30472;49.490;10.972;2023-06-19T02:26:58;18.20;99.90
44747;DHT22;30472;49.490;10.972;2023-06-19T02:29:24;18.40;99.90
44747;DHT22;30472;49.490;10.972;2023-06-19T02:31:49;18.50;99.90
44747;DHT22;30472;49.490;10.972;2023-06-19T02:34:16;18.50;99.90
44747;DHT22;30472;49.490;10.972;2023-06-19T02:36:41;18.60;99.90
44747;DHT22;30472;49.490;10.972;2023-06-19T02:39:08;18.70;99.90
44747;DHT22;30472;49.490;10.972;2023-06-19T02:41:34;18.80;99.90
44747;DHT22;30472;49.490;10.972;2023-06-19T02:43:59;18.90;99.90
44747;DHT22;30472;49.490;10.972;2023-06-19T02:46:25;18.90;99.90
44747;DHT22;30472;49.490;10.972;2023-06-19T02:48:50;18.90;99.90
44747;DHT22;30472;49.490;10.972;2023-06-19T02:51:16;18.90;99.90
44747;DHT22;30472;49.490;10.972;2023-06-19T02:53:41;18.80;99.90
44747;DHT22;30472;49.490;10.972;2023-06-19T02:56:09;18.80;99.90
44747;DHT22;30472;49.490;10.972;2023-06-19T02:58:35;18.90;99.90
44747;DHT22;30472;49.490;10.972;2023-06-19T03:01:03;18.80;99.90
44747;DHT22;30472;49.490;10.972;2023-06-19T03:03:28;18.80;99.90
44747;DHT22;30472;49.490;10.972;2023-06-19T03:05:55;18.80;99.90
44747;DHT22;30472;49.490;10.972;2023-06-19T03:08:20;18.80;99.90
44747;DHT22;30472;49.490;10.972;2023-06-19T03:10:46;18.80;99.90
44747;DHT22;30472;49.490;10.972;2023-06-19T03:13:12;18.80;99.90
44747;DHT22;30472;49.490;10.972;2023-06-19T03:15:39;18.80;99.90
44747;DHT22;30472;49.490;10.972;2023-06-19T03:18:04;18.80;99.90
44747;DHT22;30472;49.490;10.972;2023-06-19T03:20:32;18.90;99.90
44747;DHT22;30472;49.490;10.972;2023-06-19T03:22:58;19.00;99.90
44747;DHT22;30472;49.490;10.972;2023-06-19T03:25:24;19.00;99.90
44747;DHT22;30472;49.490;10.972;2023-06-19T03:27:49;19.10;99.90
44747;DHT22;30472;49.490;10.972;2023-06-19T03:30:15;19.10;99.90
44747;DHT22;30472;49.490;10.972;2023-06-19T03:32:43;19.10;99.90
44747;DHT22;30472;49.490;10.972;2023-06-19T03:35:09;19.20;99.90
44747;DHT22;30472;49.490;10.972;2023-06-19T03:37:35;19.20;99.90
44747;DHT22;30472;49.490;10.972;2023-06-19T03:40:01;19.30;99.90
44747;DHT22;30472;49.490;10.972;2023-06-19T03:42:28;19.30;99.90
44747;DHT22;30472;49.490;10.972;2023-06-19T03:44:54;19.20;99.90
44747;DHT22;30472;49.490;10.972;2023-06-19T03:47:19;19.20;99.90
44747;DHT22;30472;49.490;10.972;2023-06-19T03:49:45;19.20;99.90
44747;DHT22;30472;49.490;10.972;2023-06-19T03:52:10;19.30;99.90
44747;DHT22;30472;49.490;10.972;2023-06-19T03:54:36;19.30;99.90
44747;DHT22;30472;49.490;10.972;2023-06-19T03:57:01;19.30;99.90
44747;DHT22;30472;49.490;10.972;2023-06-19T03:59:27;19.40;99.90
44747;DHT22;30472;49.490;10.972;2023-06-19T04:01:52;19.50;99.90
44747;DHT22;30472;49.490;10.972;2023-06-19T04:04:18;19.60;99.90
44747;DHT22;30472;49.490;10.972;2023-06-19T04:06:44;19.60;99.90
44747;DHT22;30472;49.490;10.972;2023-06-19T04:09:09;19.70;99.90
44747;DHT22;30472;49.490;10.972;2023-06-19T04:11:35;19.70;99.90
44747;DHT22;30472;49.490;10.972;2023-06-19T04:14:00;19.60;99.90
44747;DHT22;30472;49.490;10.972;2023-06-19T04:16:26;19.70;99.90
44747;DHT22;30472;49.490;10.972;2023-06-19T04:18:51;19.70;99.90
44747;DHT22;30472;49.490;10.972;2023-06-19T04:21:17;19.70;99.90
44747;DHT22;30472;49.490;10.972;2023-06-19T04:23:42;19.80;99.90
44747;DHT22;30472;49.490;10.972;2023-06-19T04:26:08;19.80;99.90
44747;DHT22;30472;49.490;10.972;2023-06-19T04:28:33;19.80;99.90
44747;DHT22;30472;49.490;10.972;2023-06-19T04:30:59;19.80;99.90
44747;DHT22;30472;49.490;10.972;2023-06-19T04:33:28;19.80;99.90
44747;DHT22;30472;49.490;10.972;2023-06-19T04:35:55;19.90;99.90
44747;DHT22;30472;49.490;10.972;2023-06-19T04:38:20;19.90;99.90
44747;DHT22;30472;49.490;10.972;2023-06-19T04:40:52;20.00;99.90
44747;DHT22;30472;49.490;10.972;2023-06-19T04:43:18;20.00;99.90
44747;DHT22;30472;49.490;10.972;2023-06-19T04:45:44;20.10;99.90
44747;DHT22;30472;49.490;10.972;2023-06-19T04:48:10;20.10;99.90
44747;DHT22;30472;49.490;10.972;2023-06-19T04:50:35;20.10;99.90
44747;DHT22;30472;49.490;10.972;2023-06-19T04:53:01;20.10;99.90
44747;DHT22;30472;49.490;10.972;2023-06-19T04:55:27;20.10;99.90
44747;DHT22;30472;49.490;10.972;2023-06-19T04:57:52;20.10;99.90
44747;DHT22;30472;49.490;10.972;2023-06-19T05:00:18;20.20;99.90
44747;DHT22;30472;49.490;10.972;2023-06-19T05:02:48;20.20;99.90
44747;DHT22;30472;49.490;10.972;2023-06-19T05:05:14;20.20;99.90
44747;DHT22;30472;49.490;10.972;2023-06-19T05:07:41;20.20;99.90
44747;DHT22;30472;49.490;10.972;2023-06-19T05:10:07;20.30;99.90
44747;DHT22;30472;49.490;10.972;2023-06-19T05:12:34;20.30;99.90
44747;DHT22;30472;49.490;10.972;2023-06-19T05:15:00;20.30;99.90
44747;DHT22;30472;49.490;10.972;2023-06-19T05:17:26;20.50;99.90
44747;DHT22;30472;49.490;10.972;2023-06-19T05:19:51;20.50;99.90
44747;DHT22;30472;49.490;10.972;2023-06-19T05:22:17;20.50;99.90
44747;DHT22;30472;49.490;10.972;2023-06-19T05:24:44;20.70;99.90
44747;DHT22;30472;49.490;10.972;2023-06-19T05:27:10;20.90;99.90
44747;DHT22;30472;49.490;10.972;2023-06-19T05:29:35;21.00;99.90
44747;DHT22;30472;49.490;10.972;2023-06-19T05:32:01;21.10;99.90
44747;DHT22;30472;49.490;10.972;2023-06-19T05:34:27;21.10;99.90
44747;DHT22;30472;49.490;10.972;2023-06-19T05:36:52;21.20;99.90
44747;DHT22;30472;49.490;10.972;2023-06-19T05:39:18;21.40;99.90
44747;DHT22;30472;49.490;10.972;2023-06-19T05:41:44;21.50;99.90
44747;DHT22;30472;49.490;10.972;2023-06-19T05:44:11;21.60;99.90
44747;DHT22;30472;49.490;10.972;2023-06-19T05:46:41;21.60;99.90
44747;DHT22;30472;49.490;10.972;2023-06-19T05:49:06;21.60;99.90
44747;DHT22;30472;49.490;10.972;2023-06-19T05:51:32;21.80;99.90
44747;DHT22;30472;49.490;10.972;2023-06-19T05:53:57;22.00;99.90
44747;DHT22;30472;49.490;10.972;2023-06-19T05:56:31;22.30;99.90
44747;DHT22;30472;49.490;10.972;2023-06-19T05:58:58;22.40;99.90
44747;DHT22;30472;49.490;10.972;2023-06-19T06:01:25;22.50;99.90
44747;DHT22;30472;49.490;10.972;2023-06-19T06:03:56;22.60;99.90
44747;DHT22;30472;49.490;10.972;2023-06-19T06:06:23;22.80;99.90
44747;DHT22;30472;49.490;10.972;2023-06-19T06:08:49;22.60;99.90
44747;DHT22;30472;49.490;10.972;2023-06-19T06:11:14;22.60;99.90
44747;DHT22;30472;49.490;10.972;2023-06-19T06:13:40;22.60;99.90
44747;DHT22;30472;49.490;10.972;2023-06-19T06:16:05;22.70;99.90
44747;DHT22;30472;49.490;10.972;2023-06-19T06:18:31;22.60;99.90
44747;DHT22;30472;49.490;10.972;2023-06-19T06:20:56;22.50;99.90
44747;DHT22;30472;49.490;10.972;2023-06-19T06:23:24;22.50;99.90
44747;DHT22;30472;49.490;10.972;2023-06-19T06:25:50;22.40;99.90
44747;DHT22;30472;49.490;10.972;2023-06-19T06:28:15;22.50;99.90
44747;DHT22;30472;49.490;10.972;2023-06-19T06:30:41;22.50;99.90
44747;DHT22;30472;49.490;10.972;2023-06-19T06:33:07;22.50;99.90
44747;DHT22;30472;49.490;10.972;2023-06-19T06:35:32;22.50;99.90
44747;DHT22;30472;49.490;10.972;2023-06-19T06:37:59;22.40;99.90
44747;DHT22;30472;49.490;10.972;2023-06-19T06:40:25;22.40;99.90
44747;DHT22;30472;49.490;10.972;2023-06-19T06:42:50;22.40;99.90
44747;DHT22;30472;49.490;10.972;2023-06-19T06:45:16;22.40;99.90
44747;DHT22;30472;49.490;10.972;2023-06-19T06:47:41;22.50;99.90
44747;DHT22;30472;49.490;10.972;2023-06-19T06:50:08;22.60;99.90
44747;DHT22;30472;49.490;10.972;2023-06-19T06:52:33;22.70;99.90
44747;DHT22;30472;49.490;10.972;2023-06-19T06:54:59;22.70;99.90
44747;DHT22;30472;49.490;10.972;2023-06-19T06:57:25;22.90;99.90
44747;DHT22;30472;49.490;10.972;2023-06-19T06:59:50;23.00;99.90
44747;DHT22;30472;49.490;10.972;2023-06-19T07:02:16;23.20;99.90
44747;DHT22;30472;49.490;10.972;2023-06-19T07:04:41;23.50;99.90
44747;DHT22;30472;49.490;10.972;2023-06-19T07:07:07;23.50;99.90
44747;DHT22;30472;49.490;10.972;2023-06-19T07:09:34;23.50;99.90
44747;DHT22;30472;49.490;10.972;2023-06-19T07:12:00;23.60;99.90
44747;DHT22;30472;49.490;10.972;2023-06-19T07:14:27;23.50;99.90
44747;DHT22;30472;49.490;10.972;2023-06-19T07:16:53;23.70;99.90
44747;DHT22;30472;49.490;10.972;2023-06-19T07:19:18;23.80;99.90
44747;DHT22;30472;49.490;10.972;2023-06-19T07:21:44;23.80;99.90
44747;DHT22;30472;49.490;10.972;2023-06-19T07:24:09;24.10;99.90
44747;DHT22;30472;49.490;10.972;2023-06-19T07:26:35;24.10;99.90
44747;DHT22;30472;49.490;10.972;2023-06-19T07:29:01;24.30;99.90
44747;DHT22;30472;49.490;10.972;2023-06-19T07:31:26;25.10;99.90
44747;DHT22;30472;49.490;10.972;2023-06-19T07:33:52;26.10;99.90
44747;DHT22;30472;49.490;10.972;2023-06-19T07:36:17;26.00;99.90
44747;DHT22;30472;49.490;10.972;2023-06-19T07:38:43;26.20;99.90
44747;DHT22;30472;49.490;10.972;2023-06-19T07:41:09;26.20;99.90
44747;DHT22;30472;49.490;10.972;2023-06-19T07:43:37;25.30;99.90
44747;DHT22;30472;49.490;10.972;2023-06-19T07:46:03;25.20;99.90
44747;DHT22;30472;49.490;10.972;2023-06-19T07:48:28;24.90;99.90
44747;DHT22;30472;49.490;10.972;2023-06-19T07:50:54;24.60;99.90
44747;DHT22;30472;49.490;10.972;2023-06-19T07:53:20;24.80;99.90
44747;DHT22;30472;49.490;10.972;2023-06-19T07:55:46;24.80;99.90
44747;DHT22;30472;49.490;10.972;2023-06-19T07:58:11;24.40;99.90
44747;DHT22;30472;49.490;10.972;2023-06-19T08:00:37;24.30;99.90
44747;DHT22;30472;49.490;10.972;2023-06-19T08:03:03;24.40;99.90
44747;DHT22;30472;49.490;10.972;2023-06-19T08:05:29;24.50;99.90
44747;DHT22;30472;49.490;10.972;2023-06-19T08:07:56;24.20;99.90
44747;DHT22;30472;49.490;10.972;2023-06-19T08:10:22;24.40;99.90
44747;DHT22;30472;49.490;10.972;2023-06-19T08:12:47;24.30;99.90
44747;DHT22;30472;49.490;10.972;2023-06-19T08:15:13;24.70;99.90
44747;DHT22;30472;49.490;10.972;2023-06-19T08:17:39;25.10;99.90
44747;DHT22;30472;49.490;10.972;2023-06-19T08:20:06;25.50;99.90
44747;DHT22;30472;49.490;10.972;2023-06-19T08:22:32;25.60;99.90
44747;DHT22;30472;49.490;10.972;2023-06-19T08:24:58;25.80;99.90
44747;DHT22;30472;49.490;10.972;2023-06-19T08:27:23;25.60;99.90
44747;DHT22;30472;49.490;10.972;2023-06-19T08:29:49;25.40;99.90
44747;DHT22;30472;49.490;10.972;2023-06-19T08:32:14;26.20;99.90
44747;DHT22;30472;49.490;10.972;2023-06-19T08:34:40;26.00;99.90
44747;DHT22;30472;49.490;10.972;2023-06-19T08:37:06;26.60;99.90
44747;DHT22;30472;49.490;10.972;2023-06-19T08:39:32;27.40;99.90
44747;DHT22;30472;49.490;10.972;2023-06-19T08:41:58;27.10;99.90
44747;DHT22;30472;49.490;10.972;2023-06-19T08:44:23;26.70;99.90
44747;DHT22;30472;49.490;10.972;2023-06-19T08:46:49;26.40;99.90
44747;DHT22;30472;49.490;10.972;2023-06-19T08:49:14;26.50;99.90
44747;DHT22;30472;49.490;10.972;2023-06-19T08:51:40;26.40;99.90
44747;DHT22;30472;49.490;10.972;2023-06-19T08:54:07;26.40;99.90
44747;DHT22;30472;49.490;10.972;2023-06-19T08:56:33;26.40;99.90
44747;DHT22;30472;49.490;10.972;2023-06-19T08:59:13;26.20;99.90
44747;DHT22;30472;49.490;10.972;2023-06-19T09:01:39;26.00;99.90
44747;DHT22;30472;49.490;10.972;2023-06-19T09:04:12;25.90;99.90
44747;DHT22;30472;49.490;10.972;2023-06-19T09:06:49;25.90;99.90
44747;DHT22;30472;49.490;10.972;2023-06-19T09:09:17;25.80;99.90
44747;DHT22;30472;49.490;10.972;2023-06-19T09:11:43;26.00;99.90
44747;DHT22;30472;49.490;10.972;2023-06-19T09:14:11;26.20;99.90
44747;DHT22;30472;49.490;10.972;2023-06-19T09:16:41;26.00;99.90
44747;DHT22;30472;49.490;10.972;2023-06-19T09:19:07;26.40;99.90
44747;DHT22;30472;49.490;10.972;2023-06-19T09:21:36;27.30;99.90
44747;DHT22;30472;49.490;10.972;2023-06-19T09:24:08;27.90;99.90
44747;DHT22;30472;49.490;10.972;2023-06-19T09:26:34;27.60;99.90
44747;DHT22;30472;49.490;10.972;2023-06-19T09:29:16;28.10;99.90
44747;DHT22;30472;49.490;10.972;2023-06-19T09:31:42;27.80;99.90
44747;DHT22;30472;49.490;10.972;2023-06-19T09:34:08;27.90;99.90
44747;DHT22;30472;49.490;10.972;2023-06-19T09:36:35;27.20;99.90
44747;DHT22;30472;49.490;10.972;2023-06-19T09:39:02;27.10;99.90
44747;DHT22;30472;49.490;10.972;2023-06-19T09:41:29;27.80;99.90
44747;DHT22;30472;49.490;10.972;2023-06-19T09:43:55;28.90;99.90
44747;DHT22;30472;49.490;10.972;2023-06-19T09:46:30;29.60;99.90
44747;DHT22;30472;49.490;10.972;2023-06-19T09:49:00;30.20;99.90
44747;DHT22;30472;49.490;10.972;2023-06-19T09:51:41;30.70;99.90
44747;DHT22;30472;49.490;10.972;2023-06-19T09:54:07;30.50;99.90
44747;DHT22;30472;49.490;10.972;2023-06-19T09:56:34;30.60;99.90
44747;DHT22;30472;49.490;10.972;2023-06-19T09:59:01;30.20;99.90
44747;DHT22;30472;49.490;10.972;2023-06-19T10:01:29;30.40;99.90
44747;DHT22;30472;49.490;10.972;2023-06-19T10:04:07;30.70;99.90
44747;DHT22;30472;49.490;10.972;2023-06-19T10:06:33;31.00;99.90
44747;DHT22;30472;49.490;10.972;2023-06-19T10:09:08;30.60;99.90
44747;DHT22;30472;49.490;10.972;2023-06-19T10:11:48;30.20;99.90
44747;DHT22;30472;49.490;10.972;2023-06-19T10:14:17;30.20;99.90
44747;DHT22;30472;49.490;10.972;2023-06-19T10:16:44;30.60;99.90
44747;DHT22;30472;49.490;10.972;2023-06-19T10:19:18;30.60;99.90
44747;DHT22;30472;49.490;10.972;2023-06-19T10:21:47;30.00;99.90
44747;DHT22;30472;49.490;10.972;2023-06-19T10:24:14;29.80;99.90
44747;DHT22;30472;49.490;10.972;2023-06-19T10:26:40;29.40;99.90
44747;DHT22;30472;49.490;10.972;2023-06-19T10:29:16;29.60;99.90
44747;DHT22;30472;49.490;10.972;2023-06-19T10:31:42;29.70;99.90
44747;DHT22;30472;49.490;10.972;2023-06-19T10:34:09;29.20;99.90
44747;DHT22;30472;49.490;10.972;2023-06-19T10:36:35;30.20;99.90
44747;DHT22;30472;49.490;10.972;2023-06-19T10:39:00;30.20;99.90
44747;DHT22;30472;49.490;10.972;2023-06-19T10:41:26;29.80;99.90
44747;DHT22;30472;49.490;10.972;2023-06-19T10:43:54;30.30;99.90
44747;DHT22;30472;49.490;10.972;2023-06-19T10:46:23;31.20;99.90
44747;DHT22;30472;49.490;10.972;2023-06-19T10:48:50;31.60;99.90
44747;DHT22;30472;49.490;10.972;2023-06-19T10:51:19;31.20;99.90
44747;DHT22;30472;49.490;10.972;2023-06-19T10:53:44;31.00;99.90
44747;DHT22;30472;49.490;10.972;2023-06-19T10:56:10;31.10;99.90
44747;DHT22;30472;49.490;10.972;2023-06-19T10:58:35;31.00;99.90
44747;DHT22;30472;49.490;10.972;2023-06-19T11:01:01;30.90;99.90
44747;DHT22;30472;49.490;10.972;2023-06-19T11:03:27;30.80;99.90
44747;DHT22;30472;49.490;10.972;2023-06-19T11:05:52;29.90;99.90
44747;DHT22;30472;49.490;10.972;2023-06-19T11:08:19;30.80;99.90
44747;DHT22;30472;49.490;10.972;2023-06-19T11:10:45;31.00;99.90
44747;DHT22;30472;49.490;10.972;2023-06-19T11:13:15;30.90;99.90
44747;DHT22;30472;49.490;10.972;2023-06-19T11:15:41;31.90;99.90
44747;DHT22;30472;49.490;10.972;2023-06-19T11:18:06;32.00;99.90
44747;DHT22;30472;49.490;10.972;2023-06-19T11:20:46;32.70;99.90
44747;DHT22;30472;49.490;10.972;2023-06-19T11:23:13;31.70;99.90
44747;DHT22;30472;49.490;10.972;2023-06-19T11:25:40;31.80;99.90
44747;DHT22;30472;49.490;10.972;2023-06-19T11:28:14;31.50;99.90
44747;DHT22;30472;49.490;10.972;2023-06-19T11:30:40;30.90;99.90
44747;DHT22;30472;49.490;10.972;2023-06-19T11:33:21;31.40;99.90
44747;DHT22;30472;49.490;10.972;2023-06-19T11:35:50;31.50;99.90
44747;DHT22;30472;49.490;10.972;2023-06-19T11:38:23;30.90;99.90
44747;DHT22;30472;49.490;10.972;2023-06-19T11:40:50;31.80;99.90
44747;DHT22;30472;49.490;10.972;2023-06-19T11:43:30;32.10;99.90
44747;DHT22;30472;49.490;10.972;2023-06-19T11:46:06;32.10;99.90
44747;DHT22;30472;49.490;10.972;2023-06-19T11:48:36;31.20;99.90
44747;DHT22;30472;49.490;10.972;2023-06-19T11:51:02;32.00;99.90
44747;DHT22;30472;49.490;10.972;2023-06-19T11:53:28;32.70;99.90
44747;DHT22;30472;49.490;10.972;2023-06-19T11:55:53;33.00;99.90
44747;DHT22;30472;49.490;10.972;2023-06-19T11:58:19;32.70;99.90
44747;DHT22;30472;49.490;10.972;2023-06-19T12:00:46;32.70;99.90
44747;DHT22;30472;49.490;10.972;2023-06-19T12:03:12;32.60;99.90
44747;DHT22;30472;49.490;10.972;2023-06-19T12:05:38;32.20;99.90
44747;DHT22;30472;49.490;10.972;2023-06-19T12:08:04;31.70;99.90
44747;DHT22;30472;49.490;10.972;2023-06-19T12:10:31;32.30;99.90
44747;DHT22;30472;49.490;10.972;2023-06-19T12:12:56;32.50;99.90
44747;DHT22;30472;49.490;10.972;2023-06-19T12:15:22;32.00;99.90
44747;DHT22;30472;49.490;10.972;2023-06-19T12:17:48;31.80;99.90
44747;DHT22;30472;49.490;10.972;2023-06-19T12:20:14;32.10;99.90
44747;DHT22;30472;49.490;10.972;2023-06-19T12:22:40;32.00;99.90
44747;DHT22;30472;49.490;10.972;2023-06-19T12:25:06;32.00;99.90
44747;DHT22;30472;49.490;10.972;2023-06-19T12:27:32;31.30;99.90
44747;DHT22;30472;49.490;10.972;2023-06-19T12:29:57;31.90;99.90
44747;DHT22;30472;49.490;10.972;2023-06-19T12:32:23;32.70;99.90
44747;DHT22;30472;49.490;10.972;2023-06-19T12:34:49;32.50;99.90
44747;DHT22;30472;49.490;10.972;2023-06-19T12:37:20;32.00;99.90
44747;DHT22;30472;49.490;10.972;2023-06-19T12:39:46;31.10;99.90
44747;DHT22;30472;49.490;10.972;2023-06-19T12:42:12;31.00;99.90
44747;DHT22;30472;49.490;10.972;2023-06-19T12:44:41;31.50;99.90
44747;DHT22;30472;49.490;10.972;2023-06-19T12:47:07;31.90;99.90
44747;DHT22;30472;49.490;10.972;2023-06-19T12:49:33;31.60;99.90
44747;DHT22;30472;49.490;10.972;2023-06-19T12:51:59;32.10;99.90
44747;DHT22;30472;49.490;10.972;2023-06-19T12:54:25;32.20;99.90
44747;DHT22;30472;49.490;10.972;2023-06-19T12:56:51;31.20;99.90
44747;DHT22;30472;49.490;10.972;2023-06-19T12:59:16;31.20;99.90
44747;DHT22;30472;49.490;10.972;2023-06-19T13:01:42;31.00;99.90
44747;DHT22;30472;49.490;10.972;2023-06-19T13:04:08;30.70;99.90
44747;DHT22;30472;49.490;10.972;2023-06-19T13:06:35;30.80;99.90
44747;DHT22;30472;49.490;10.972;2023-06-19T13:09:01;30.30;99.90
44747;DHT22;30472;49.490;10.972;2023-06-19T13:11:27;30.60;99.90
44747;DHT22;30472;49.490;10.972;2023-06-19T13:13:53;30.90;99.90
44747;DHT22;30472;49.490;10.972;2023-06-19T13:16:18;31.10;99.90
44747;DHT22;30472;49.490;10.972;2023-06-19T13:18:44;31.00;99.90
44747;DHT22;30472;49.490;10.972;2023-06-19T13:21:11;31.50;99.90
44747;DHT22;30472;49.490;10.972;2023-06-19T13:23:36;32.20;99.90
44747;DHT22;30472;49.490;10.972;2023-06-19T13:26:02;32.50;99.90
44747;DHT22;30472;49.490;10.972;2023-06-19T13:28:27;33.00;99.30
44747;DHT22;30472;49.490;10.972;2023-06-19T13:30:53;32.10;99.40
44747;DHT22;30472;49.490;10.972;2023-06-19T13:33:18;31.30;99.90
44747;DHT22;30472;49.490;10.972;2023-06-19T13:35:44;31.20;99.90
44747;DHT22;30472;49.490;10.972;2023-06-19T13:38:09;31.40;99.90
44747;DHT22;30472;49.490;10.972;2023-06-19T13:40:36;31.20;99.90
44747;DHT22;30472;49.490;10.972;2023-06-19T13:43:01;30.90;99.90
44747;DHT22;30472;49.490;10.972;2023-06-19T13:45:29;30.70;99.90
44747;DHT22;30472;49.490;10.972;2023-06-19T13:47:56;30.30;99.90
44747;DHT22;30472;49.490;10.972;2023-06-19T13:50:21;30.20;99.90
44747;DHT22;30472;49.490;10.972;2023-06-19T13:52:49;30.40;99.90
44747;DHT22;30472;49.490;10.972;2023-06-19T13:55:15;30.30;99.90
44747;DHT22;30472;49.490;10.972;2023-06-19T13:57:41;30.20;99.90
44747;DHT22;30472;49.490;10.972;2023-06-19T14:00:08;30.30;99.90
44747;DHT22;30472;49.490;10.972;2023-06-19T14:02:36;30.50;99.90
44747;DHT22;30472;49.490;10.972;2023-06-19T14:05:04;30.30;99.90
44747;DHT22;30472;49.490;10.972;2023-06-19T14:07:30;30.10;99.90
44747;DHT22;30472;49.490;10.972;2023-06-19T14:09:55;30.10;99.90
44747;DHT22;30472;49.490;10.972;2023-06-19T14:12:21;30.10;99.90
44747;DHT22;30472;49.490;10.972;2023-06-19T14:14:47;29.80;99.90
44747;DHT22;30472;49.490;10.972;2023-06-19T14:17:13;29.80;99.90
44747;DHT22;30472;49.490;10.972;2023-06-19T14:19:39;29.50;99.90
44747;DHT22;30472;49.490;10.972;2023-06-19T14:22:04;29.50;99.90
44747;DHT22;30472;49.490;10.972;2023-06-19T14:24:30;28.90;99.90
44747;DHT22;30472;49.490;10.972;2023-06-19T14:26:55;29.20;99.90
44747;DHT22;30472;49.490;10.972;2023-06-19T14:29:21;29.70;99.90
44747;DHT22;30472;49.490;10.972;2023-06-19T14:31:46;30.30;99.90
44747;DHT22;30472;49.490;10.972;2023-06-19T14:34:12;30.00;99.90
44747;DHT22;30472;49.490;10.972;2023-06-19T14:36:38;30.00;99.90
44747;DHT22;30472;49.490;10.972;2023-06-19T14:39:04;29.80;99.90
44747;DHT22;30472;49.490;10.972;2023-06-19T14:41:30;29.90;99.90
44747;DHT22;30472;49.490;10.972;2023-06-19T14:43:55;29.50;99.90
44747;DHT22;30472;49.490;10.972;2023-06-19T14:46:21;29.10;99.90
44747;DHT22;30472;49.490;10.972;2023-06-19T14:48:47;29.40;99.90
44747;DHT22;30472;49.490;10.972;2023-06-19T14:51:12;29.50;99.90
44747;DHT22;30472;49.490;10.972;2023-06-19T14:53:38;29.30;99.90
44747;DHT22;30472;49.490;10.972;2023-06-19T14:56:04;29.00;99.90
44747;DHT22;30472;49.490;10.972;2023-06-19T14:58:29;29.00;99.90
44747;DHT22;30472;49.490;10.972;2023-06-19T15:00:55;28.90;99.90
44747;DHT22;30472;49.490;10.972;2023-06-19T15:03:21;28.40;99.90
44747;DHT22;30472;49.490;10.972;2023-06-19T15:05:47;27.80;99.90
44747;DHT22;30472;49.490;10.972;2023-06-19T15:08:12;27.00;99.90
44747;DHT22;30472;49.490;10.972;2023-06-19T15:10:38;27.00;99.90
44747;DHT22;30472;49.490;10.972;2023-06-19T15:13:04;26.80;99.90